Time;durP1;ratioP1;P1;durP2;ratioP2;P2;SDS_P1;SDS_P2;PMS_P1;PMS_P2;Temp;Humidity;BMP_temperature;BMP_pressure;BME280_temperature;BME280_humidity;BME280_pressure;Samples;Min_cycle;Max_cycle;Signal;HPM_P1;HPM_P2
2021/10/28 00:14:09;;;;;;;1999.90;999.90;;;;;;;4.95;57.19;101807.38;5036241;27;97888;-77
2021/10/28 00:16:36;;;;;;;1999.90;999.90;;;;;;;4.96;57.11;101803.00;5034810;27;97866;-76
2021/10/28 00:19:06;;;;;;;1999.90;999.90;;;;;;;4.93;57.18;101805.47;5028872;27;99449;-76
2021/10/28 00:21:35;;;;;;;1999.90;999.90;;;;;;;4.92;57.13;101819.44;5035530;27;97706;-76
2021/10/28 00:24:05;;;;;;;1999.90;999.90;;;;;;;4.90;57.23;101806.19;5031570;27;99021;-76
2021/10/28 00:26:35;;;;;;;1999.90;999.90;;;;;;;4.91;57.09;101813.28;5028098;27;99245;-77
2021/10/28 00:29:05;;;;;;;1999.90;999.90;;;;;;;4.90;57.18;101813.22;5031955;27;99943;-76
2021/10/28 00:31:35;;;;;;;1999.90;999.90;;;;;;;4.90;57.19;101815.84;5034255;27;97188;-76
2021/10/28 00:34:05;;;;;;;1999.90;999.90;;;;;;;4.88;57.09;101813.09;5032853;27;97533;-74
2021/10/28 00:36:33;;;;;;;1999.90;999.90;;;;;;;4.84;57.18;101823.38;5034736;27;98316;-76
2021/10/28 00:39:01;;;;;;;1999.90;999.90;;;;;;;4.82;57.24;101811.81;5035895;27;97888;-75
2021/10/28 00:41:29;;;;;;;1999.90;999.90;;;;;;;4.80;57.23;101816.09;5016997;27;99219;-76
2021/10/28 00:43:59;;;;;;;1999.90;999.90;;;;;;;4.81;57.26;101805.63;5036262;27;97994;-76
2021/10/28 00:46:29;;;;;;;1999.90;999.90;;;;;;;4.81;57.03;101804.75;5035249;27;98047;-74
2021/10/28 00:48:56;;;;;;;1999.90;999.90;;;;;;;4.81;57.04;101799.47;5027973;27;98048;-75
2021/10/28 00:51:28;;;;;;;1999.90;999.90;;;;;;;4.77;57.15;101800.97;5031735;27;99208;-76
2021/10/28 00:53:57;;;;;;;1999.90;999.90;;;;;;;4.79;57.08;101803.75;5015318;27;97921;-74
2021/10/28 00:56:27;;;;;;;1999.90;999.90;;;;;;;4.76;57.16;101800.91;5033012;27;99261;-75
2021/10/28 00:58:54;;;;;;;1999.90;999.90;;;;;;;4.75;57.08;101809.63;5033176;27;99073;-75
2021/10/28 01:01:22;;;;;;;1999.90;999.90;;;;;;;4.79;57.07;101806.38;5036743;27;97794;-76
2021/10/28 01:03:51;;;;;;;1999.90;999.90;;;;;;;4.72;57.22;101804.16;5035210;27;98178;-75
2021/10/28 01:06:19;;;;;;;1999.90;999.90;;;;;;;4.69;57.24;101803.97;5032720;27;100200;-75
2021/10/28 01:08:48;;;;;;;1999.90;999.90;;;;;;;4.65;57.28;101802.88;5047668;27;98732;-75
2021/10/28 01:11:16;;;;;;;1999.90;999.90;;;;;;;4.64;57.20;101808.06;5015003;27;97281;-74
2021/10/28 01:13:44;;;;;;;1999.90;999.90;;;;;;;4.61;57.47;101806.13;5032589;27;97225;-75
2021/10/28 01:16:12;;;;;;;1999.90;999.90;;;;;;;4.61;57.39;101806.13;5035002;27;97623;-73
2021/10/28 01:18:40;;;;;;;1999.90;999.90;;;;;;;4.61;57.35;101810.53;5030441;27;98640;-75
2021/10/28 01:21:09;;;;;;;1999.90;999.90;;;;;;;4.61;57.15;101808.78;5029965;27;97167;-75
2021/10/28 01:23:41;;;;;;;1999.90;999.90;;;;;;;4.58;57.30;101811.25;5032363;27;97546;-75
2021/10/28 01:26:11;;;;;;;1999.90;999.90;;;;;;;4.59;57.28;101804.25;5048689;27;99449;-75
2021/10/28 01:28:40;;;;;;;1999.90;999.90;;;;;;;4.58;57.26;101802.41;5030735;27;97864;-75
2021/10/28 01:31:10;;;;;;;1999.90;999.90;;;;;;;4.58;57.24;101805.03;5020377;27;97308;-75
2021/10/28 01:33:40;;;;;;;1999.90;999.90;;;;;;;4.55;57.24;101804.88;5032368;27;97886;-75
2021/10/28 01:36:10;;;;;;;1999.90;999.90;;;;;;;4.50;57.41;101801.94;5032784;27;98240;-76
2021/10/28 01:38:38;;;;;;;1999.90;999.90;;;;;;;4.43;57.52;101802.38;5034777;27;97834;-73
2021/10/28 01:41:06;;;;;;;1999.90;999.90;;;;;;;4.41;57.59;101800.47;5032920;27;99970;-75
2021/10/28 01:43:35;;;;;;;1999.90;999.90;;;;;;;4.38;57.71;101801.19;5034628;27;97740;-75
2021/10/28 01:46:05;;;;;;;1999.90;999.90;;;;;;;4.38;57.68;101797.63;5035605;27;99586;-74
2021/10/28 01:48:36;;;;;;;1999.90;999.90;;;;;;;4.38;57.66;101798.56;5032459;27;98685;-76
2021/10/28 01:51:04;;;;;;;1999.90;999.90;;;;;;;4.36;57.67;101801.91;5003192;27;97533;-75
2021/10/28 01:53:35;;;;;;;1999.90;999.90;;;;;;;4.34;57.70;101801.81;5035531;27;98131;-76
2021/10/28 01:56:05;;;;;;;1999.90;999.90;;;;;;;4.34;57.38;101799.19;5034800;27;99096;-74
2021/10/28 01:58:32;;;;;;;1999.90;999.90;;;;;;;4.32;57.70;101789.38;5016216;27;99029;-75
2021/10/28 02:01:01;;;;;;;1999.90;999.90;;;;;;;4.29;57.68;101790.09;5033540;27;97369;-76
2021/10/28 02:03:29;;;;;;;1999.90;999.90;;;;;;;4.27;57.83;101791.72;5035366;27;97933;-75
2021/10/28 02:05:56;;;;;;;1999.90;999.90;;;;;;;4.27;57.79;101786.44;5021070;27;98778;-76
2021/10/28 02:08:25;;;;;;;1999.90;999.90;;;;;;;4.30;57.66;101788.38;5032349;27;99620;-75
2021/10/28 02:10:55;;;;;;;1999.90;999.90;;;;;;;4.26;57.50;101782.00;5035353;27;98644;-75
2021/10/28 02:13:27;;;;;;;1999.90;999.90;;;;;;;4.28;57.71;101782.09;5033910;27;97149;-76
2021/10/28 02:15:54;;;;;;;1999.90;999.90;;;;;;;4.26;57.72;101786.34;5024313;27;98227;-75
2021/10/28 02:18:22;;;;;;;1999.90;999.90;;;;;;;4.22;57.68;101790.53;5034651;27;98956;-76
2021/10/28 02:20:50;;;;;;;1999.90;999.90;;;;;;;4.18;57.81;101791.13;5034304;27;97024;-76
2021/10/28 02:23:18;;;;;;;1999.90;999.90;;;;;;;4.14;57.82;101787.41;5036415;27;97994;-75
2021/10/28 02:25:46;;;;;;;1999.90;999.90;;;;;;;4.13;57.62;101790.84;5027721;27;97215;-76
2021/10/28 02:28:15;;;;;;;1999.90;999.90;;;;;;;4.12;57.77;101791.66;5035726;27;98315;-76
2021/10/28 02:30:43;;;;;;;1999.90;999.90;;;;;;;4.13;57.70;101793.47;5036286;27;98238;-74
2021/10/28 02:33:11;;;;;;;1999.90;999.90;;;;;;;4.13;57.51;101801.38;5034379;27;98239;-75
2021/10/28 02:35:38;;;;;;;1999.90;999.90;;;;;;;4.15;57.45;101797.09;5034015;27;99650;-75
2021/10/28 02:38:06;;;;;;;1999.90;999.90;;;;;;;4.10;57.45;101793.28;5030170;27;100783;-76
2021/10/28 02:40:34;;;;;;;1999.90;999.90;;;;;;;4.11;57.31;101804.75;5037206;27;99479;-76
2021/10/28 02:43:02;;;;;;;1999.90;999.90;;;;;;;4.10;57.31;101790.66;5035339;27;98045;-76
2021/10/28 02:45:31;;;;;;;1999.90;999.90;;;;;;;4.11;57.46;101788.94;5035399;27;100745;-75
2021/10/28 02:47:59;;;;;;;1999.90;999.90;;;;;;;4.07;57.45;101785.19;5019772;27;100886;-76
2021/10/28 02:50:27;;;;;;;1999.90;999.90;;;;;;;4.04;57.58;101782.34;5035286;27;98829;-76
2021/10/28 02:52:55;;;;;;;1999.90;999.90;;;;;;;4.04;57.48;101792.88;5039728;27;97354;-76
2021/10/28 02:55:23;;;;;;;1999.90;999.90;;;;;;;4.01;57.81;101787.44;5016353;27;98381;-76
2021/10/28 02:57:51;;;;;;;1999.90;999.90;;;;;;;3.99;57.71;101789.06;5035429;27;98066;-75
2021/10/28 03:00:18;;;;;;;1999.90;999.90;;;;;;;3.96;57.88;101791.50;5034078;27;100377;-76
2021/10/28 03:02:47;;;;;;;1999.90;999.90;;;;;;;3.92;57.71;101797.38;5038373;27;96884;-75
2021/10/28 03:05:15;;;;;;;1999.90;999.90;;;;;;;3.90;57.68;101793.75;5010480;27;99254;-75
2021/10/28 03:07:43;;;;;;;1999.90;999.90;;;;;;;3.89;57.87;101797.19;5021176;27;100779;-76
2021/10/28 03:10:11;;;;;;;1999.90;999.90;;;;;;;3.89;57.77;101791.94;5037524;27;97551;-75
2021/10/28 03:12:41;;;;;;;1999.90;999.90;;;;;;;3.90;58.03;101782.28;5037604;27;96962;-75
2021/10/28 03:15:11;;;;;;;1999.90;999.90;;;;;;;3.94;57.85;101793.13;5039298;27;97756;-76
2021/10/28 03:17:52;;;;;;;1999.90;999.90;;;;;;;3.95;57.65;101791.41;5037301;27;101574;-76
2021/10/28 03:25:52;;;;;;;1999.90;999.90;;;;;;;3.84;57.93;101785.44;5036993;27;97890;-74
2021/10/28 03:28:22;;;;;;;1999.90;999.90;;;;;;;3.87;57.80;101790.00;5036644;27;96837;-75
2021/10/28 03:30:50;;;;;;;1999.90;999.90;;;;;;;3.87;57.55;101792.63;5038639;27;97077;-77
2021/10/28 03:33:21;;;;;;;1999.90;999.90;;;;;;;3.84;57.59;101787.19;5035409;27;98024;-76
2021/10/28 03:35:51;;;;;;;1999.90;999.90;;;;;;;3.81;57.73;101793.16;5019992;27;99272;-77
2021/10/28 03:38:23;;;;;;;1999.90;999.90;;;;;;;3.80;57.86;101791.34;5035684;27;100586;-76
2021/10/28 03:46:45;;;;;;;1999.90;999.90;;;;;;;3.75;57.70;101786.59;5023140;27;98153;-77
2021/10/28 04:18:14;;;;;;;1999.90;999.90;;;;;;;3.62;58.08;101774.34;4966560;28;98294;-74
2021/10/28 04:29:10;;;;;;;1999.90;999.90;;;;;;;3.47;58.06;101785.56;4953767;28;97819;-76
2021/10/28 04:31:39;;;;;;;1999.90;999.90;;;;;;;3.46;58.42;101781.13;4969432;28;98042;-76
2021/10/28 04:34:08;;;;;;;1999.90;999.90;;;;;;;3.47;58.12;101782.94;4984925;27;100573;-75
2021/10/28 04:36:36;;;;;;;1999.90;999.90;;;;;;;3.95;57.05;101776.50;5028611;27;97681;-76
2021/10/28 04:39:07;;;;;;;1999.90;999.90;;;;;;;3.68;57.75;101776.47;5032856;27;97757;-75
2021/10/28 04:41:36;;;;;;;1999.90;999.90;;;;;;;3.57;58.22;101781.00;5030729;27;97434;-74
2021/10/28 04:44:07;;;;;;;1999.90;999.90;;;;;;;3.52;58.03;101777.16;5032358;27;100499;-76
2021/10/28 04:46:34;;;;;;;1999.90;999.90;;;;;;;3.49;58.37;101776.06;5026354;27;99398;-75
2021/10/28 04:49:03;;;;;;;1999.90;999.90;;;;;;;3.45;58.53;101780.22;5030375;27;97879;-76
2021/10/28 04:51:31;;;;;;;1999.90;999.90;;;;;;;3.41;58.70;101782.53;5030060;27;97939;-75
2021/10/28 04:53:58;;;;;;;1999.90;999.90;;;;;;;3.40;58.65;101786.91;5028897;27;100513;-75
2021/10/28 04:56:27;;;;;;;1999.90;999.90;;;;;;;3.37;58.65;101786.69;5032405;27;97888;-75
2021/10/28 04:58:55;;;;;;;1999.90;999.90;;;;;;;3.35;58.55;101784.78;5028247;27;98582;-75
2021/10/28 05:01:25;;;;;;;1999.90;999.90;;;;;;;3.33;58.67;101779.38;5028227;27;96942;-76
2021/10/28 05:03:53;;;;;;;1999.90;999.90;;;;;;;3.30;58.72;101775.66;5029892;27;97804;-75
2021/10/28 05:06:21;;;;;;;1999.90;999.90;;;;;;;3.79;57.60;101771.09;5030239;27;97700;-75
2021/10/28 05:08:48;;;;;;;1999.90;999.90;;;;;;;3.53;57.92;101776.34;5031059;27;98506;-76
2021/10/28 05:11:17;;;;;;;1999.90;999.90;;;;;;;3.44;58.51;101773.13;5009757;27;98758;-75
2021/10/28 05:13:47;;;;;;;1999.90;999.90;;;;;;;3.38;58.29;101766.56;5031708;27;98989;-75
2021/10/28 05:16:15;;;;;;;1999.90;999.90;;;;;;;3.36;58.66;101769.09;5027222;27;98555;-76
2021/10/28 05:18:42;;;;;;;1999.90;999.90;;;;;;;3.33;58.32;101762.72;5017935;27;97754;-74
2021/10/28 05:21:12;;;;;;;1999.90;999.90;;;;;;;3.32;58.64;101774.03;5015628;27;99277;-75
2021/10/28 05:23:40;;;;;;;1999.90;999.90;;;;;;;3.29;58.74;101772.13;5017724;27;98811;-75
2021/10/28 05:26:09;;;;;;;1999.90;999.90;;;;;;;3.22;58.62;101765.53;5016831;27;97773;-76
2021/10/28 05:28:37;;;;;;;1999.90;999.90;;;;;;;3.20;58.70;101764.53;5017488;27;97519;-75
2021/10/28 05:31:06;;;;;;;1999.90;999.90;;;;;;;3.18;58.48;101760.00;5014836;27;98271;-74
2021/10/28 05:33:34;;;;;;;1999.90;999.90;;;;;;;3.17;58.72;101768.66;5008289;27;100139;-74
2021/10/28 05:36:02;;;;;;;1999.90;999.90;;;;;;;3.16;58.69;101764.22;5017277;27;98669;-74
2021/10/28 05:38:30;;;;;;;1999.90;999.90;;;;;;;3.15;58.85;101762.41;5015234;27;97508;-74
2021/10/28 05:40:57;;;;;;;1999.90;999.90;;;;;;;3.13;58.72;101764.03;5016591;27;98139;-77
2021/10/28 05:43:25;;;;;;;1999.90;999.90;;;;;;;3.12;58.42;101759.56;5015788;27;99184;-75
2021/10/28 05:45:53;;;;;;;1999.90;999.90;;;;;;;3.13;58.96;101759.66;5015048;27;99254;-76
2021/10/28 05:48:22;;;;;;;1999.90;999.90;;;;;;;3.14;58.97;101765.84;5016187;27;97352;-79
2021/10/28 05:50:50;;;;;;;1999.90;999.90;;;;;;;3.13;58.91;101758.78;5015665;27;96846;-77
2021/10/28 05:53:19;;;;;;;1999.90;999.90;;;;;;;3.08;58.75;101758.47;5013192;27;98846;-76
2021/10/28 05:55:48;;;;;;;1999.90;999.90;;;;;;;3.07;58.97;101754.03;5014148;27;101056;-76
2021/10/28 05:58:16;;;;;;;1999.90;999.90;;;;;;;3.08;58.93;101757.53;5015549;27;97072;-75
2021/10/28 06:00:44;;;;;;;1999.90;999.90;;;;;;;3.07;58.70;101754.03;5018087;27;97168;-77
2021/10/28 06:03:13;;;;;;;1999.90;999.90;;;;;;;3.08;58.50;101753.22;5011287;27;100664;-77
2021/10/28 06:05:43;;;;;;;1999.90;999.90;;;;;;;3.07;58.68;101758.38;4998970;28;100852;-77
2021/10/28 06:08:10;;;;;;;1999.90;999.90;;;;;;;3.07;58.49;101754.03;5015227;27;97966;-75
2021/10/28 06:10:38;;;;;;;1999.90;999.90;;;;;;;3.07;58.96;101758.38;5010384;27;98642;-78
2021/10/28 06:13:07;;;;;;;1999.90;999.90;;;;;;;3.05;58.84;101746.84;5009618;27;97992;-76
2021/10/28 06:15:36;;;;;;;1999.90;999.90;;;;;;;3.04;59.12;101758.13;5015532;27;101746;-78
2021/10/28 06:18:24;;;;;;;1999.90;999.90;;;;;;;3.03;58.33;101758.97;5014618;27;97029;-78
2021/10/28 06:20:54;;;;;;;1999.90;999.90;;;;;;;3.00;58.64;101749.13;5016722;27;97590;-75
2021/10/28 06:23:22;;;;;;;1999.90;999.90;;;;;;;3.00;59.02;101758.78;5010271;27;99675;-77
2021/10/28 06:25:50;;;;;;;1999.90;999.90;;;;;;;2.98;58.47;101755.13;5000085;27;98994;-76
2021/10/28 06:28:20;;;;;;;1999.90;999.90;;;;;;;2.96;58.43;101757.66;5013074;27;97984;-77
2021/10/28 06:30:47;;;;;;;1999.90;999.90;;;;;;;2.98;58.64;101753.38;5030861;27;98835;-78
2021/10/28 06:33:19;;;;;;;1999.90;999.90;;;;;;;2.97;58.85;101748.03;5015006;27;97923;-79
2021/10/28 06:35:52;;;;;;;1999.90;999.90;;;;;;;2.95;58.74;101754.91;5013848;27;100334;-78
2021/10/28 06:38:21;;;;;;;1999.90;999.90;;;;;;;2.94;58.41;101750.47;5007422;27;97032;-77
2021/10/28 06:40:49;;;;;;;1999.90;999.90;;;;;;;2.93;58.65;101749.53;5013997;27;99363;-77
2021/10/28 06:43:17;;;;;;;1999.90;999.90;;;;;;;2.92;58.97;101752.06;5011381;27;97875;-78
2021/10/28 06:45:44;;;;;;;1999.90;999.90;;;;;;;2.91;59.16;101747.63;5013596;27;98193;-78
2021/10/28 06:48:13;;;;;;;1999.90;999.90;;;;;;;2.91;58.59;101752.91;5012654;27;97817;-77
2021/10/28 06:50:46;;;;;;;1999.90;999.90;;;;;;;2.89;58.94;101747.50;5015711;27;97774;-78
2021/10/28 06:53:23;;;;;;;1999.90;999.90;;;;;;;2.90;58.68;101748.44;4995766;28;102874;-78
2021/10/28 06:55:58;;;;;;;1999.90;999.90;;;;;;;2.90;58.56;101749.34;5010707;27;99195;-79
2021/10/28 07:03:57;;;;;;;1999.90;999.90;;;;;;;2.92;58.82;101741.56;5012795;27;98802;-76
2021/10/28 07:06:27;;;;;;;1999.90;999.90;;;;;;;2.92;58.84;101745.09;5010569;27;99792;-79
2021/10/28 07:09:02;;;;;;;1999.90;999.90;;;;;;;2.97;58.58;101746.31;5012900;27;98677;-79
2021/10/28 07:11:33;;;;;;;1999.90;999.90;;;;;;;2.99;58.77;101747.34;4997684;27;98176;-79
2021/10/28 07:14:05;;;;;;;1999.90;999.90;;;;;;;3.02;58.88;101746.66;5008178;27;100699;-78
2021/10/28 07:16:39;;;;;;;1999.90;999.90;;;;;;;3.05;58.72;101750.38;5012954;27;97739;-79
2021/10/28 07:22:10;;;;;;;1999.90;999.90;;;;;;;3.13;58.72;101756.16;5001557;27;97981;-78
2021/10/28 07:24:57;;;;;;;1999.90;999.90;;;;;;;3.14;58.99;101751.00;5013238;27;99776;-78
2021/10/28 07:27:38;;;;;;;1999.90;999.90;;;;;;;3.18;58.34;101758.25;5015157;27;99243;-76
2021/10/28 07:35:59;;;;;;;1999.90;999.90;;;;;;;3.63;58.60;101749.81;5012316;27;98860;-73
2021/10/28 07:38:58;;;;;;;1999.90;999.90;;;;;;;3.53;58.86;101751.78;5013161;27;100718;-75
2021/10/28 07:56:04;;;;;;;1999.90;999.90;;;;;;;4.40;57.63;101738.03;5003972;27;97719;-74
2021/10/28 07:58:42;;;;;;;1999.90;999.90;;;;;;;4.64;57.36;101729.91;5009103;27;101604;-74
2021/10/28 08:15:13;;;;;;;1999.90;999.90;;;;;;;4.33;58.64;101715.69;5015538;27;96891;-73
2021/10/28 08:17:58;;;;;;;1999.90;999.90;;;;;;;4.36;58.91;101707.03;5009993;27;96917;-74
2021/10/28 08:21:00;;;;;;;1999.90;999.90;;;;;;;4.34;58.42;101714.84;4992493;28;98549;-74
2021/10/28 08:23:35;;;;;;;1999.90;999.90;;;;;;;4.37;58.24;101708.88;5010999;27;99408;-74
2021/10/28 08:28:52;;;;;;;1999.90;999.90;;;;;;;4.44;58.39;101690.91;5008808;27;98033;-74
2021/10/28 08:31:23;;;;;;;1999.90;999.90;;;;;;;4.46;58.26;101689.28;5012928;27;98587;-74
2021/10/28 08:33:51;;;;;;;1999.90;999.90;;;;;;;4.50;58.38;101693.88;5008556;27;101176;-73
2021/10/28 08:36:24;;;;;;;1999.90;999.90;;;;;;;4.53;58.46;101675.63;5007126;27;99072;-74
2021/10/28 08:38:52;;;;;;;1999.90;999.90;;;;;;;4.56;58.43;101677.53;4993505;27;98068;-74
2021/10/28 08:41:22;;;;;;;1999.90;999.90;;;;;;;4.59;58.64;101670.69;5012699;27;97891;-74
2021/10/28 08:43:51;;;;;;;1999.90;999.90;;;;;;;4.65;58.46;101672.78;5011078;27;100069;-74
2021/10/28 08:46:21;;;;;;;1999.90;999.90;;;;;;;4.68;58.34;101662.44;5013140;27;97688;-73
2021/10/28 08:48:55;;;;;;;1999.90;999.90;;;;;;;4.69;58.52;101664.25;5013826;27;98095;-75
2021/10/28 08:51:28;;;;;;;1999.90;999.90;;;;;;;4.74;58.39;101661.06;5013800;27;97084;-74
2021/10/28 08:54:06;;;;;;;1999.90;999.90;;;;;;;4.81;58.12;101659.72;5017524;27;99227;-75
2021/10/28 08:59:33;;;;;;;1999.90;999.90;;;;;;;4.83;58.46;101651.06;5015975;27;101196;-73
2021/10/28 09:19:44;;;;;;;1999.90;999.90;;;;;;;5.23;58.26;101655.19;5016315;27;96920;-75
2021/10/28 09:24:59;;;;;;;1999.90;999.90;;;;;;;5.38;58.05;101648.94;5017513;27;97998;-75
2021/10/28 09:27:42;;;;;;;1999.90;999.90;;;;;;;5.45;58.51;101644.09;5014236;27;100777;-74
2021/10/28 09:30:14;;;;;;;1999.90;999.90;;;;;;;5.53;58.06;101639.22;5008118;27;97197;-74
2021/10/28 09:32:44;;;;;;;1999.90;999.90;;;;;;;5.61;57.77;101644.09;5013868;27;96932;-76
2021/10/28 09:35:48;;;;;;;1999.90;999.90;;;;;;;5.71;57.67;101645.50;5004867;27;101133;-74
2021/10/28 09:44:59;;;;;;;1999.90;999.90;;;;;;;5.93;57.67;101638.84;5002735;27;98196;-76
2021/10/28 09:47:32;;;;;;;1999.90;999.90;;;;;;;6.04;57.72;101631.47;4987122;28;99588;-74
2021/10/28 09:50:09;;;;;;;1999.90;999.90;;;;;;;6.11;57.22;101637.16;5004639;27;100490;-73
2021/10/28 09:52:48;;;;;;;1999.90;999.90;;;;;;;6.20;57.22;101631.44;5009843;27;98311;-73
2021/10/28 09:58:03;;;;;;;1999.90;999.90;;;;;;;6.36;57.03;101622.63;5016407;27;99417;-73
2021/10/28 10:00:37;;;;;;;1999.90;999.90;;;;;;;6.43;56.99;101617.75;5017047;27;97945;-75
2021/10/28 10:03:10;;;;;;;1999.90;999.90;;;;;;;6.51;57.19;101626.03;5018162;27;97109;-74
2021/10/28 10:05:39;;;;;;;1999.90;999.90;;;;;;;6.61;56.96;101617.75;5015468;27;97352;-74
2021/10/28 10:08:09;;;;;;;1999.90;999.90;;;;;;;6.69;57.04;101617.28;5016084;27;99798;-74
2021/10/28 10:10:36;;;;;;;1999.90;999.90;;;;;;;6.79;56.82;101613.38;5016953;27;97964;-74
2021/10/28 10:13:04;;;;;;;1999.90;999.90;;;;;;;6.88;56.64;101613.81;5017571;27;96820;-74
2021/10/28 10:15:32;;;;;;;1999.90;999.90;;;;;;;7.03;56.62;101602.25;4999313;27;98337;-73
2021/10/28 10:18:04;;;;;;;1999.90;999.90;;;;;;;7.14;56.43;101613.34;5013401;27;101689;-75
2021/10/28 10:20:41;;;;;;;1999.90;999.90;;;;;;;7.21;56.54;101611.09;5017153;27;99463;-72
2021/10/28 10:23:26;;;;;;;1999.90;999.90;;;;;;;7.33;56.51;101613.38;5017837;27;97072;-73
2021/10/28 10:26:10;;;;;;;1999.90;999.90;;;;;;;7.45;56.50;101600.78;5014976;27;97962;-74
2021/10/28 11:22:58;;;;;;;1999.90;999.90;;;;;;;9.15;54.45;101554.28;5016176;27;98960;-75
2021/10/28 11:29:00;;;;;;;1999.90;999.90;;;;;;;9.28;54.26;101547.69;5010573;27;97203;-74
2021/10/28 11:31:55;;;;;;;1999.90;999.90;;;;;;;9.35;54.28;101545.34;5014135;27;99524;-73
2021/10/28 12:25:39;;;;;;;1999.90;999.90;;;;;;;10.51;52.22;101450.25;5010586;27;98775;-74
2021/10/28 12:45:30;;;;;;;1999.90;999.90;;;;;;;10.84;51.53;101441.56;4915406;28;98736;-74
2021/10/28 12:48:13;;;;;;;1999.90;999.90;;;;;;;10.89;51.55;101431.03;4978901;28;99329;-73
2021/10/28 12:50:51;;;;;;;1999.90;999.90;;;;;;;10.94;51.30;101424.13;5008572;27;98712;-74
2021/10/28 12:56:28;;;;;;;1999.90;999.90;;;;;;;11.03;50.91;101419.94;5013073;27;98082;-73
2021/10/28 13:05:07;;;;;;;1999.90;999.90;;;;;;;11.09;50.87;101413.88;5014801;27;97954;-73
2021/10/28 13:36:05;;;;;;;1999.90;999.90;;;;;;;12.07;48.99;101380.16;4988107;27;97866;-74
2021/10/28 13:49:54;;;;;;;1999.90;999.90;;;;;;;13.50;47.00;101361.09;4990988;27;98761;-74
2021/10/28 13:52:40;;;;;;;1999.90;999.90;;;;;;;13.73;46.36;101364.19;5026201;27;97910;-73
2021/10/28 13:58:20;;;;;;;1999.90;999.90;;;;;;;14.09;45.95;101352.34;4953246;27;99202;-74
2021/10/28 14:23:13;;;;;;;1999.90;999.90;;;;;;;14.32;45.10;101327.69;5024955;27;98275;-73
2021/10/28 15:02:37;;;;;;;1999.90;999.90;;;;;;;12.66;46.53;101303.25;5016284;27;99999;-72
2021/10/28 15:30:02;;;;;;;1999.90;999.90;;;;;;;11.66;46.72;101266.25;5010729;27;99185;-77
2021/10/28 15:35:28;;;;;;;1999.90;999.90;;;;;;;11.41;47.14;101255.88;5028692;27;99347;-77
2021/10/28 15:38:15;;;;;;;1999.90;999.90;;;;;;;11.58;45.80;101259.81;5011695;27;97745;-77
2021/10/28 15:40:56;;;;;;;1999.90;999.90;;;;;;;11.34;46.40;101255.66;5015140;27;97292;-77
2021/10/28 15:57:41;;;;;;;1999.90;999.90;;;;;;;11.27;45.56;101248.34;5014494;27;97723;-77
2021/10/28 16:00:28;;;;;;;1999.90;999.90;;;;;;;10.92;46.40;101242.97;5016506;27;99216;-75
2021/10/28 16:22:18;;;;;;;1999.90;999.90;;;;;;;10.37;47.19;101238.69;5010860;27;98271;-75
2021/10/28 16:24:45;;;;;;;1999.90;999.90;;;;;;;10.24;47.53;101237.44;5013520;27;97241;-75
2021/10/28 16:27:13;;;;;;;1999.90;999.90;;;;;;;10.15;47.73;101248.72;5010833;27;97716;-77
2021/10/28 16:29:41;;;;;;;1999.90;999.90;;;;;;;10.44;46.71;101240.72;5008671;27;97712;-76
2021/10/28 16:32:08;;;;;;;1999.90;999.90;;;;;;;10.56;46.06;101236.63;5009740;27;99034;-75
2021/10/28 16:34:38;;;;;;;1999.90;999.90;;;;;;;10.63;45.91;101245.72;4986728;28;96991;-75
2021/10/28 16:37:05;;;;;;;1999.90;999.90;;;;;;;10.20;47.06;101241.78;5012628;27;97736;-74
2021/10/28 16:39:33;;;;;;;1999.90;999.90;;;;;;;10.03;47.40;101240.34;5011185;27;98969;-75
2021/10/28 16:42:01;;;;;;;1999.90;999.90;;;;;;;9.90;47.85;101240.81;5013281;27;98024;-75
2021/10/28 16:44:29;;;;;;;1999.90;999.90;;;;;;;9.79;47.92;101242.25;5027125;27;97613;-75
2021/10/28 16:46:58;;;;;;;1999.90;999.90;;;;;;;9.70;48.22;101239.28;5011563;27;97102;-76
2021/10/28 16:49:25;;;;;;;1999.90;999.90;;;;;;;9.64;48.40;101244.44;5010533;27;97390;-76
2021/10/28 16:51:55;;;;;;;1999.90;999.90;;;;;;;9.55;48.55;101244.13;5010826;27;98906;-75
2021/10/28 16:54:22;;;;;;;1999.90;999.90;;;;;;;9.48;48.64;101244.75;5011041;27;97182;-75
2021/10/28 16:56:50;;;;;;;1999.90;999.90;;;;;;;9.41;48.87;101240.06;5010275;27;97686;-76
2021/10/28 16:59:21;;;;;;;1999.90;999.90;;;;;;;9.74;47.97;101243.88;5006033;27;98451;-76
2021/10/28 17:01:50;;;;;;;1999.90;999.90;;;;;;;9.90;47.27;101240.81;5005268;27;100701;-76
2021/10/28 17:04:18;;;;;;;1999.90;999.90;;;;;;;9.55;48.19;101237.91;5017510;27;98120;-76
2021/10/28 17:06:47;;;;;;;1999.90;999.90;;;;;;;9.41;48.56;101240.06;5014423;27;97495;-76
2021/10/28 17:09:16;;;;;;;1999.90;999.90;;;;;;;9.29;48.71;101238.75;5014321;27;99229;-76
2021/10/28 17:11:43;;;;;;;1999.90;999.90;;;;;;;9.19;49.09;101237.53;5030170;27;99414;-76
2021/10/28 17:14:11;;;;;;;1999.90;999.90;;;;;;;9.10;49.28;101240.81;5018070;27;97747;-76
2021/10/28 17:16:41;;;;;;;1999.90;999.90;;;;;;;9.02;49.40;101238.75;5018133;27;97810;-76
2021/10/28 17:19:10;;;;;;;1999.90;999.90;;;;;;;8.95;49.70;101242.03;5019257;27;99748;-76
2021/10/28 17:21:37;;;;;;;1999.90;999.90;;;;;;;8.88;49.67;101240.00;5017447;27;99663;-76
2021/10/28 17:24:07;;;;;;;1999.90;999.90;;;;;;;8.81;49.76;101237.97;5021682;27;97264;-76
2021/10/28 17:26:36;;;;;;;1999.90;999.90;;;;;;;8.75;49.98;101229.81;5015898;27;97962;-76
2021/10/28 17:29:04;;;;;;;1999.90;999.90;;;;;;;8.70;50.07;101239.34;5020675;27;98533;-76
2021/10/28 17:31:33;;;;;;;1999.90;999.90;;;;;;;8.64;50.14;101233.84;5018120;27;98774;-76
2021/10/28 17:34:02;;;;;;;1999.90;999.90;;;;;;;8.59;50.16;101233.66;5017871;27;97804;-76
2021/10/28 17:36:30;;;;;;;1999.90;999.90;;;;;;;8.54;50.17;101235.25;5003585;27;98475;-76
2021/10/28 17:39:02;;;;;;;1999.90;999.90;;;;;;;8.49;50.44;101242.16;5006161;27;99678;-75
2021/10/28 17:41:29;;;;;;;1999.90;999.90;;;;;;;8.43;50.41;101239.22;5014803;27;98435;-76
2021/10/28 17:43:59;;;;;;;1999.90;999.90;;;;;;;8.35;50.61;101240.66;5013465;27;98072;-76
2021/10/28 17:46:27;;;;;;;1999.90;999.90;;;;;;;8.30;50.50;101236.03;5011152;27;97194;-75
2021/10/28 17:48:55;;;;;;;1999.90;999.90;;;;;;;8.25;50.63;101235.88;5015039;27;98180;-76
2021/10/28 17:51:23;;;;;;;1999.90;999.90;;;;;;;8.21;50.85;101239.25;5014470;27;98894;-76
2021/10/28 17:53:51;;;;;;;1999.90;999.90;;;;;;;8.15;50.84;101234.63;5010800;27;98419;-76
2021/10/28 17:56:20;;;;;;;1999.90;999.90;;;;;;;8.09;50.99;101234.38;5013075;27;96901;-77
2021/10/28 17:58:49;;;;;;;1999.90;999.90;;;;;;;8.04;50.88;101232.41;5012913;27;97788;-77
2021/10/28 18:01:21;;;;;;;1999.90;999.90;;;;;;;7.98;50.98;101230.41;5015019;27;99454;-77
2021/10/28 18:03:49;;;;;;;1999.90;999.90;;;;;;;7.94;51.31;101231.16;5015098;27;97238;-77
2021/10/28 18:06:16;;;;;;;1999.90;999.90;;;;;;;7.92;51.43;101230.19;5014746;27;97174;-75
2021/10/28 18:08:44;;;;;;;1999.90;999.90;;;;;;;7.88;51.24;101222.97;4998242;27;100254;-76
2021/10/28 18:11:12;;;;;;;1999.90;999.90;;;;;;;7.85;51.24;101227.25;5011489;27;98855;-74
2021/10/28 18:13:39;;;;;;;1999.90;999.90;;;;;;;7.80;51.43;101227.06;5011858;27;98023;-75
2021/10/28 18:16:07;;;;;;;1999.90;999.90;;;;;;;7.75;51.59;101223.34;5012744;27;96751;-75
2021/10/28 18:18:37;;;;;;;1999.90;999.90;;;;;;;7.70;51.46;101224.91;5011076;27;97863;-75
2021/10/28 18:21:05;;;;;;;1999.90;999.90;;;;;;;7.64;51.40;101219.34;5010493;27;100644;-73
2021/10/28 18:23:38;;;;;;;1999.90;999.90;;;;;;;7.59;51.54;101218.28;4997872;27;97223;-74
2021/10/28 18:26:05;;;;;;;1999.90;999.90;;;;;;;7.55;51.59;101218.06;5011949;27;98013;-74